createdAt,value
2023-05-10T00:02:03.592Z,2.30
2023-05-10T00:07:06.826Z,3.28
2023-05-10T00:12:11.686Z,2.58
2023-05-10T00:17:14.980Z,2.67
2023-05-10T00:22:18.138Z,2.90
2023-05-10T00:27:22.852Z,2.47
2023-05-10T00:32:27.857Z,2.53
2023-05-10T00:37:31.192Z,2.60
2023-05-10T00:42:35.851Z,2.60
2023-05-10T00:47:39.222Z,2.47
2023-05-10T00:52:42.737Z,2.50
2023-05-10T00:57:48.018Z,2.60
2023-05-10T01:02:52.410Z,2.88
2023-05-10T01:07:55.711Z,2.63
2023-05-10T01:13:02.110Z,3.10
2023-05-10T01:18:06.356Z,2.47
2023-05-10T01:23:38.948Z,2.88
2023-05-10T01:29:00.950Z,2.43
2023-05-10T01:34:12.355Z,3.00
2023-05-10T01:39:21.858Z,2.58
2023-05-10T01:44:32.353Z,2.73
2023-05-10T01:49:43.390Z,2.78
2023-05-10T01:54:56.165Z,2.67
2023-05-10T02:00:01.953Z,2.57
2023-05-10T02:05:09.407Z,3.03
2023-05-10T02:10:14.098Z,2.83
2023-05-10T02:15:22.107Z,2.60
2023-05-10T02:20:28.500Z,2.90
2023-05-10T02:25:33.341Z,2.80
2023-05-10T02:30:37.529Z,2.77
2023-05-10T02:35:43.344Z,3.27
2023-05-10T02:40:48.504Z,3.20
2023-05-10T02:45:51.924Z,4.57
2023-05-10T02:51:01.961Z,2.93
2023-05-10T02:56:10.743Z,3.40
2023-05-10T03:01:14.128Z,2.90
2023-05-10T03:06:18.892Z,3.00
2023-05-10T03:11:42.455Z,3.07
2023-05-10T03:16:49.597Z,3.13
2023-05-10T03:21:55.924Z,2.70
2023-05-10T03:27:03.963Z,4.20
2023-05-10T03:32:07.242Z,2.70
2023-05-10T03:37:12.012Z,2.30
2023-05-10T03:42:15.485Z,2.70
2023-05-10T03:47:21.177Z,3.10
2023-05-10T03:52:25.838Z,4.10
2023-05-10T03:57:29.149Z,2.97
2023-05-10T04:02:33.025Z,2.70
2023-05-10T04:07:37.778Z,2.83
2023-05-10T04:12:41.005Z,2.77
2023-05-10T04:17:44.305Z,2.50
2023-05-10T04:22:49.079Z,3.30
2023-05-10T04:27:52.554Z,2.85
2023-05-10T04:32:55.991Z,3.80
2023-05-10T04:38:00.841Z,3.20
2023-05-10T04:43:04.018Z,2.60
2023-05-10T04:48:08.552Z,2.67
2023-05-10T04:53:14.605Z,2.80
2023-05-10T04:58:19.068Z,3.05
2023-05-10T05:03:23.349Z,2.80
2023-05-10T05:08:28.696Z,2.78
2023-05-10T05:13:32.002Z,3.05
2023-05-10T05:18:35.239Z,2.45
2023-05-10T05:23:40.274Z,2.65
2023-05-10T05:28:43.626Z,2.95
2023-05-10T05:33:47.136Z,3.10
2023-05-10T05:38:51.899Z,2.17
2023-05-10T05:43:55.352Z,2.55
2023-05-10T05:49:02.405Z,2.50
2023-05-10T05:54:07.746Z,2.50
2023-05-10T05:59:16.066Z,2.45
2023-05-10T06:04:19.910Z,2.30
2023-05-10T06:09:28.745Z,2.22
2023-05-10T06:14:32.667Z,2.45
2023-05-10T06:19:36.028Z,2.67
2023-05-10T06:24:41.157Z,2.30
2023-05-10T06:29:46.514Z,2.30
2023-05-10T06:34:49.883Z,2.30
2023-05-10T06:39:54.632Z,2.47
2023-05-10T06:44:58.112Z,2.45
2023-05-10T06:50:09.632Z,2.58
2023-05-10T06:55:14.402Z,2.28
2023-05-10T07:00:18.739Z,2.25
2023-05-10T07:05:22.762Z,2.65
2023-05-10T07:10:27.781Z,2.20
2023-05-10T07:15:31.035Z,2.17
2023-05-10T07:20:34.487Z,2.30
2023-05-10T07:25:39.462Z,2.53
2023-05-10T07:30:43.133Z,2.20
2023-05-10T07:35:46.803Z,2.35
2023-05-10T07:40:51.386Z,2.38
2023-05-10T07:45:56.280Z,2.20
2023-05-10T07:50:59.658Z,2.35
2023-05-10T07:56:23.569Z,2.63
2023-05-10T08:01:28.265Z,2.22
2023-05-10T08:06:31.673Z,2.47
2023-05-10T08:11:36.353Z,2.38
2023-05-10T08:16:39.706Z,2.65
2023-05-10T08:21:43.673Z,2.85
2023-05-10T08:26:49.211Z,2.40
2023-05-10T08:31:52.563Z,2.67
2023-05-10T08:36:56.064Z,2.20
2023-05-10T08:42:04.700Z,2.50
2023-05-10T08:47:21.188Z,2.47
2023-05-10T08:52:28.017Z,2.42
2023-05-10T08:57:32.950Z,2.72
2023-05-10T09:02:37.207Z,3.08
2023-05-10T09:07:40.537Z,2.78
2023-05-10T09:12:46.402Z,3.25
2023-05-10T09:17:51.359Z,3.05
2023-05-10T09:22:54.668Z,3.30
2023-05-10T09:27:59.688Z,3.08
2023-05-10T09:33:03.731Z,3.17
2023-05-10T09:38:08.682Z,3.63
2023-05-10T09:43:13.712Z,3.95
2023-05-10T09:48:17.078Z,4.13
2023-05-10T09:53:20.235Z,3.85
2023-05-10T09:58:24.909Z,3.70
2023-05-10T10:03:30.296Z,4.22
2023-05-10T10:08:34.625Z,4.50
2023-05-10T10:13:39.737Z,4.00
2023-05-10T10:18:44.802Z,4.28
2023-05-10T10:23:48.733Z,4.25
2023-05-10T10:29:02.534Z,4.40
2023-05-10T10:34:09.075Z,4.53
2023-05-10T10:39:13.743Z,4.50
2023-05-10T10:44:45.798Z,4.82
2023-05-10T10:49:52.976Z,4.53
2023-05-10T10:55:01.566Z,4.53
2023-05-10T11:00:32.197Z,4.90
2023-05-10T11:05:43.500Z,4.32
2023-05-10T11:10:55.927Z,5.28
2023-05-10T11:16:15.237Z,5.03
2023-05-10T11:21:18.491Z,4.93
2023-05-10T11:26:24.342Z,5.38
2023-05-10T11:31:28.976Z,5.38
2023-05-10T11:36:36.843Z,5.05
2023-05-10T11:41:43.045Z,5.45
2023-05-10T11:46:47.945Z,5.50
2023-05-10T11:51:51.184Z,5.50
2023-05-10T11:56:54.529Z,5.35
2023-05-10T12:01:59.670Z,5.30
2023-05-10T12:07:03.358Z,5.55
2023-05-10T12:12:07.137Z,6.10
2023-05-10T12:17:15.371Z,5.88
2023-05-10T12:22:23.046Z,5.70
2023-05-10T12:27:26.611Z,6.47
2023-05-10T12:32:44.145Z,6.15
2023-05-10T12:37:47.347Z,5.43
2023-05-10T12:42:50.611Z,5.82
2023-05-10T12:47:55.312Z,5.28
2023-05-10T12:52:58.517Z,5.53
2023-05-10T12:58:01.833Z,5.20
2023-05-10T13:03:07.696Z,5.68
2023-05-10T13:08:11.548Z,4.85
2023-05-10T13:13:14.812Z,4.70
2023-05-10T13:18:20.106Z,4.53
2023-05-10T13:23:23.389Z,6.80
2023-05-10T13:28:27.696Z,4.20
2023-05-10T13:33:32.544Z,4.50
2023-05-10T13:38:36.414Z,3.92
2023-05-10T13:43:39.848Z,4.30
2023-05-10T13:48:44.523Z,4.07
2023-05-10T13:53:49.206Z,3.80
2023-05-10T13:58:52.688Z,4.10
2023-05-10T14:03:57.397Z,3.60
2023-05-10T14:09:00.711Z,3.63
2023-05-10T14:14:04.642Z,4.22
2023-05-10T14:19:09.453Z,2.28
2023-05-10T14:24:12.985Z,1.30
2023-05-10T14:29:16.454Z,0.82
2023-05-10T14:34:21.412Z,0.90
2023-05-10T14:39:25.084Z,1.00
2023-05-10T14:44:28.815Z,1.13
2023-05-10T14:49:33.401Z,1.10
2023-05-10T14:54:36.623Z,1.40
2023-05-10T14:59:39.829Z,2.10
2023-05-10T15:04:45.118Z,2.35
2023-05-10T15:09:48.439Z,2.40
2023-05-10T15:14:51.687Z,2.60
2023-05-10T15:19:56.470Z,2.67
2023-05-10T15:24:59.898Z,1.17
2023-05-10T15:30:03.469Z,1.52
2023-05-10T15:35:10.500Z,0.85
2023-05-10T15:40:14.476Z,1.10
2023-05-10T15:45:18.129Z,0.90
2023-05-10T15:50:23.193Z,0.93
2023-05-10T15:55:26.602Z,0.77
2023-05-10T16:00:30.602Z,1.00
2023-05-10T16:05:35.668Z,2.08
2023-05-10T16:10:38.897Z,1.05
2023-05-10T16:15:42.104Z,0.95
2023-05-10T16:20:46.950Z,0.93
2023-05-10T16:25:50.092Z,1.00
2023-05-10T16:30:53.513Z,0.80
2023-05-10T16:35:58.374Z,0.98
2023-05-10T16:41:03.699Z,1.00
2023-05-10T16:46:11.921Z,1.20
2023-05-10T16:51:19.186Z,0.90
2023-05-10T16:56:23.421Z,0.98
2023-05-10T17:01:30.039Z,1.08
2023-05-10T17:06:36.826Z,1.58
2023-05-10T17:11:42.273Z,1.00
2023-05-10T17:17:04.467Z,1.00
2023-05-10T17:22:10.240Z,1.63
2023-05-10T17:27:15.685Z,1.73
2023-05-10T17:32:19.039Z,2.45
2023-05-10T17:37:35.288Z,1.80
2023-05-10T17:42:48.221Z,2.85
2023-05-10T17:47:52.463Z,1.48
2023-05-10T17:52:59.468Z,1.60
2023-05-10T17:58:03.348Z,3.13
2023-05-10T18:03:07.435Z,2.92
2023-05-10T18:08:12.680Z,2.90
2023-05-10T18:13:22.443Z,2.10
2023-05-10T18:18:27.489Z,2.50
2023-05-10T18:23:32.443Z,2.38
2023-05-10T18:28:46.866Z,3.53
2023-05-10T18:33:54.973Z,3.67
2023-05-10T18:39:00.204Z,3.63
2023-05-10T18:44:03.536Z,3.80
2023-05-10T18:49:08.468Z,2.60
2023-05-10T18:54:13.421Z,2.17
2023-05-10T18:59:16.843Z,2.47
2023-05-10T19:04:20.347Z,3.00
2023-05-10T19:09:25.201Z,2.78
2023-05-10T19:14:28.713Z,2.50
2023-05-10T19:19:33.016Z,2.50
2023-05-10T19:24:37.953Z,2.45
2023-05-10T19:29:49.504Z,2.42
2023-05-10T19:34:53.047Z,3.53
2023-05-10T19:39:58.024Z,3.90
2023-05-10T19:45:01.457Z,3.30
2023-05-10T19:50:11.798Z,3.92
2023-05-10T19:55:26.686Z,3.90
2023-05-10T20:00:36.742Z,3.67
2023-05-10T20:05:48.800Z,4.38
2023-05-10T20:11:08.198Z,4.03
2023-05-10T20:16:18.601Z,4.00
2023-05-10T20:21:29.698Z,4.45
2023-05-10T20:26:36.553Z,4.28
2023-05-10T20:31:39.900Z,4.40
2023-05-10T20:36:55.362Z,4.60
2023-05-10T20:42:00.640Z,4.00
2023-05-10T20:47:04.066Z,4.93
2023-05-10T20:52:07.581Z,4.95
2023-05-10T20:57:13.180Z,4.70
2023-05-10T21:02:16.849Z,4.60
2023-05-10T21:07:20.164Z,4.82
2023-05-10T21:12:24.847Z,4.47
2023-05-10T21:17:28.384Z,6.63
2023-05-10T21:22:31.561Z,4.78
2023-05-10T21:27:36.366Z,4.68
2023-05-10T21:32:39.671Z,4.70
2023-05-10T21:37:43.311Z,5.50
2023-05-10T21:42:49.617Z,4.55
2023-05-10T21:47:52.938Z,5.43
2023-05-10T21:52:56.780Z,5.28
2023-05-10T21:58:01.391Z,4.70
2023-05-10T22:03:04.897Z,5.07
2023-05-10T22:08:08.745Z,5.38
2023-05-10T22:13:13.369Z,5.00
2023-05-10T22:18:16.795Z,5.55
2023-05-10T22:23:20.020Z,6.10
2023-05-10T22:28:24.615Z,6.30
2023-05-10T22:33:28.145Z,5.15
2023-05-10T22:38:31.447Z,6.07
2023-05-10T22:43:36.162Z,5.85
2023-05-10T22:48:39.379Z,5.55
2023-05-10T22:53:42.946Z,5.10
2023-05-10T22:58:47.556Z,5.97
2023-05-10T23:03:51.529Z,6.00
2023-05-10T23:08:54.827Z,5.53
2023-05-10T23:13:59.560Z,5.57
2023-05-10T23:19:02.973Z,5.97
2023-05-10T23:24:08.691Z,6.30
2023-05-10T23:29:13.597Z,5.63
2023-05-10T23:34:17.529Z,6.50
2023-05-10T23:39:20.937Z,6.75
2023-05-10T23:44:26.096Z,5.70
2023-05-10T23:49:29.523Z,6.38
2023-05-10T23:54:33.030Z,5.95
2023-05-10T23:59:37.680Z,6.10
